createdAt,value
2019-05-18T00:02:28.804Z,100777.75
2019-05-18T00:05:00.219Z,100781.78
2019-05-18T00:07:31.668Z,100786.22
2019-05-18T00:10:03.024Z,100788.00
2019-05-18T00:12:35.510Z,100801.52
2019-05-18T00:15:08.697Z,100796.44
2019-05-18T00:17:40.104Z,100791.28
2019-05-18T00:20:14.614Z,100795.80
2019-05-18T00:22:46.007Z,100798.09
2019-05-18T00:25:17.452Z,100794.77
2019-05-18T00:27:49.932Z,100801.12
2019-05-18T00:30:25.071Z,100795.12
2019-05-18T00:32:56.495Z,100799.78
2019-05-18T00:35:27.961Z,100797.31
2019-05-18T00:37:59.388Z,100791.31
2019-05-18T00:40:30.793Z,100795.84
2019-05-18T00:43:02.196Z,100795.78
2019-05-18T00:45:33.684Z,100791.98
2019-05-18T00:48:05.147Z,100791.72
2019-05-18T00:50:36.551Z,100793.16
2019-05-18T00:53:07.950Z,100794.71
2019-05-18T00:55:39.390Z,100788.59
2019-05-18T00:58:11.737Z,100786.91
2019-05-18T01:00:43.169Z,100784.41
2019-05-18T01:03:14.571Z,100782.88
2019-05-18T01:05:46.008Z,100786.77
2019-05-18T01:08:17.433Z,100774.30
2019-05-18T01:10:49.878Z,100776.43
2019-05-18T01:13:21.348Z,100776.27
2019-05-18T01:15:52.747Z,100775.14
2019-05-18T01:18:25.157Z,100772.58
2019-05-18T01:20:56.581Z,100761.75
2019-05-18T01:23:28.099Z,100758.30
2019-05-18T01:25:59.508Z,100757.89
2019-05-18T01:28:32.097Z,100758.91
2019-05-18T01:31:03.598Z,100753.73
2019-05-18T01:33:36.005Z,100763.94
2019-05-18T01:36:07.416Z,100761.48
2019-05-18T01:38:42.073Z,100762.92
2019-05-18T01:41:13.771Z,100770.90
2019-05-18T01:43:45.329Z,100768.02
2019-05-18T01:46:16.732Z,100766.67
2019-05-18T01:48:48.088Z,100771.69
2019-05-18T01:51:19.591Z,100774.05
2019-05-18T01:53:51.889Z,100769.73
2019-05-18T01:56:23.357Z,100770.97
2019-05-18T01:58:55.779Z,100764.95
2019-05-18T02:01:29.683Z,100765.11
2019-05-18T02:04:04.917Z,100767.47
2019-05-18T02:06:36.792Z,100766.22
2019-05-18T02:09:09.888Z,100779.00
2019-05-18T02:11:41.338Z,100782.37
2019-05-18T02:14:12.936Z,100782.78
2019-05-18T02:16:44.386Z,100778.84
2019-05-18T02:19:15.785Z,100780.87
2019-05-18T02:21:48.172Z,100780.87
2019-05-18T02:24:20.619Z,100782.13
2019-05-18T02:26:53.912Z,100772.84
2019-05-18T02:29:27.571Z,100772.56
2019-05-18T02:31:59.000Z,100771.70
2019-05-18T02:34:32.157Z,100773.05
2019-05-18T02:37:03.681Z,100776.02
2019-05-18T02:39:36.692Z,100781.03
2019-05-18T02:42:10.681Z,100772.89
2019-05-18T02:44:42.121Z,100775.25
2019-05-18T02:47:13.539Z,100781.80
2019-05-18T02:49:46.354Z,100784.12
2019-05-18T02:52:17.898Z,100784.38
2019-05-18T02:54:49.336Z,100794.42
2019-05-18T02:57:21.853Z,100784.41
2019-05-18T02:59:53.423Z,100785.75
2019-05-18T03:02:24.826Z,100786.84
2019-05-18T03:04:57.211Z,100785.17
2019-05-18T03:07:28.895Z,100779.22
2019-05-18T03:10:00.297Z,100785.23
2019-05-18T03:12:31.722Z,100789.06
2019-05-18T03:15:03.465Z,100794.64
2019-05-18T03:17:37.152Z,100786.27
2019-05-18T03:20:11.590Z,100785.08
2019-05-18T03:22:43.171Z,100775.44
2019-05-18T03:25:14.753Z,100782.00
2019-05-18T03:27:46.220Z,100784.36
2019-05-18T03:30:19.156Z,100782.23
2019-05-18T03:32:51.527Z,100791.59
2019-05-18T03:35:23.021Z,100783.57
2019-05-18T03:37:54.554Z,100788.67
2019-05-18T03:40:26.101Z,100771.73
2019-05-18T03:42:57.774Z,100775.77
2019-05-18T03:45:30.371Z,100777.69
2019-05-18T03:48:01.956Z,100774.21
2019-05-18T03:50:34.568Z,100769.11
2019-05-18T03:53:06.574Z,100781.67
2019-05-18T03:55:38.021Z,100778.98
2019-05-18T03:58:09.674Z,100775.45
2019-05-18T04:00:41.169Z,100777.17
2019-05-18T04:03:14.621Z,100772.44
2019-05-18T04:05:46.074Z,100770.52
2019-05-18T04:08:18.432Z,100762.13
2019-05-18T04:10:49.946Z,100763.11
2019-05-18T04:13:21.571Z,100767.86
2019-05-18T04:15:53.018Z,100777.84
2019-05-18T04:18:24.662Z,100769.25
2019-05-18T04:20:56.295Z,100772.67
2019-05-18T04:23:27.747Z,100775.47
2019-05-18T04:25:59.187Z,100767.25
2019-05-18T04:28:30.849Z,100772.95
2019-05-18T04:31:02.379Z,100768.47
2019-05-18T04:33:33.916Z,100767.86
2019-05-18T04:36:06.238Z,100765.77
2019-05-18T04:38:37.643Z,100760.09
2019-05-18T04:41:09.819Z,100764.94
2019-05-18T04:43:41.298Z,100750.90
2019-05-18T04:46:13.018Z,100754.68
2019-05-18T04:48:44.565Z,100753.35
2019-05-18T04:51:15.982Z,100743.82
2019-05-18T04:53:47.510Z,100761.78
2019-05-18T04:56:18.946Z,100749.85
2019-05-18T04:58:55.528Z,100746.78
2019-05-18T05:01:27.079Z,100749.27
2019-05-18T05:03:58.716Z,100749.86
2019-05-18T05:06:31.226Z,100752.88
2019-05-18T05:09:08.048Z,100754.64
2019-05-18T05:11:39.508Z,100743.45
2019-05-18T05:14:12.336Z,100749.98
2019-05-18T05:16:44.848Z,100749.97
2019-05-18T05:19:19.137Z,100744.76
2019-05-18T05:21:50.550Z,100751.16
2019-05-18T05:24:22.906Z,100745.61
2019-05-18T05:26:55.358Z,100740.73
2019-05-18T05:29:28.045Z,100746.01
2019-05-18T05:31:59.416Z,100741.34
2019-05-18T05:34:33.017Z,100736.83
2019-05-18T05:37:05.470Z,100742.69
2019-05-18T05:39:36.869Z,100734.32
2019-05-18T05:42:10.195Z,100734.84
2019-05-18T05:44:41.698Z,100731.77
2019-05-18T05:47:14.307Z,100730.92
2019-05-18T05:49:45.760Z,100739.64
2019-05-18T05:52:18.184Z,100728.67
2019-05-18T05:54:49.678Z,100728.36
2019-05-18T05:57:21.107Z,100718.12
2019-05-18T05:59:52.609Z,100721.86
2019-05-18T06:02:24.971Z,100722.50
2019-05-18T06:04:56.465Z,100726.08
2019-05-18T06:07:31.873Z,100721.95
2019-05-18T06:10:03.824Z,100715.07
2019-05-18T06:12:35.250Z,100715.44
2019-05-18T06:15:09.274Z,100706.38
2019-05-18T06:17:40.797Z,100701.61
2019-05-18T06:20:12.360Z,100708.35
2019-05-18T06:22:43.864Z,100698.82
2019-05-18T06:25:15.299Z,100694.08
2019-05-18T06:27:46.845Z,100706.15
2019-05-18T06:30:19.051Z,100692.30
2019-05-18T06:32:50.572Z,100696.86
2019-05-18T06:35:22.142Z,100698.80
2019-05-18T06:37:53.655Z,100701.72
2019-05-18T06:40:25.200Z,100704.47
2019-05-18T06:42:56.614Z,100703.42
2019-05-18T06:45:30.053Z,100713.14
2019-05-18T06:48:03.756Z,100715.92
2019-05-18T06:50:35.351Z,100708.98
2019-05-18T06:53:07.825Z,100707.33
2019-05-18T06:55:40.130Z,100701.59
2019-05-18T06:58:12.679Z,100697.55
2019-05-18T07:00:45.110Z,100699.14
2019-05-18T07:03:16.512Z,100701.20
2019-05-18T07:05:48.079Z,100707.27
2019-05-18T07:08:20.631Z,100703.93
2019-05-18T07:10:52.282Z,100701.11
2019-05-18T07:13:23.903Z,100703.05
2019-05-18T07:15:55.510Z,100701.11
2019-05-18T07:18:27.022Z,100693.52
2019-05-18T07:20:58.536Z,100692.70
2019-05-18T07:23:30.007Z,100700.66
2019-05-18T07:26:01.479Z,100702.86
2019-05-18T07:28:33.063Z,100701.61
2019-05-18T07:31:04.597Z,100702.48
2019-05-18T07:33:36.039Z,100697.19
2019-05-18T07:36:07.808Z,100692.81
2019-05-18T07:38:40.281Z,100696.86
2019-05-18T07:41:12.822Z,100703.06
2019-05-18T07:43:44.392Z,100694.83
2019-05-18T07:46:15.810Z,100699.06
2019-05-18T07:48:47.207Z,100695.09
2019-05-18T07:51:20.669Z,100691.15
2019-05-18T07:53:52.291Z,100682.34
2019-05-18T07:56:23.729Z,100682.42
2019-05-18T07:58:57.282Z,100692.61
2019-05-18T08:01:28.868Z,100686.54
2019-05-18T08:04:00.585Z,100696.73
2019-05-18T08:06:32.192Z,100711.47
2019-05-18T08:09:04.620Z,100693.00
2019-05-18T08:11:36.236Z,100685.25
2019-05-18T08:14:07.768Z,100668.55
2019-05-18T08:16:39.386Z,100681.02
2019-05-18T08:19:10.931Z,100681.44
2019-05-18T08:21:52.698Z,100680.83
2019-05-18T08:24:15.740Z,100691.86
2019-05-18T08:26:49.255Z,100680.89
2019-05-18T08:29:20.970Z,100687.44
2019-05-18T08:31:52.460Z,100686.41
2019-05-18T08:34:24.082Z,100695.94
2019-05-18T08:36:56.684Z,100713.70
2019-05-18T08:39:28.163Z,100691.48
2019-05-18T08:41:59.724Z,100692.52
2019-05-18T08:44:31.320Z,100689.13
2019-05-18T08:47:02.897Z,100693.86
2019-05-18T08:49:36.037Z,100673.99
2019-05-18T08:52:08.868Z,100674.50
2019-05-18T08:54:41.608Z,100675.70
2019-05-18T08:57:14.113Z,100666.23
2019-05-18T08:59:45.577Z,100668.25
2019-05-18T09:02:17.018Z,100675.30
2019-05-18T09:04:48.598Z,100668.73
2019-05-18T09:07:21.103Z,100671.86
2019-05-18T09:09:54.405Z,100669.39
2019-05-18T09:12:26.993Z,100670.47
2019-05-18T09:14:59.607Z,100665.16
2019-05-18T09:17:31.329Z,100676.59
2019-05-18T09:20:03.505Z,100655.70
2019-05-18T09:22:38.738Z,100658.88
2019-05-18T09:25:12.382Z,100645.26
2019-05-18T09:27:46.999Z,100642.84
2019-05-18T09:30:18.822Z,100638.33
2019-05-18T09:32:50.408Z,100637.42
2019-05-18T09:35:22.953Z,100637.70
2019-05-18T09:37:54.406Z,100647.48
2019-05-18T09:40:26.218Z,100644.66
2019-05-18T09:42:58.030Z,100645.25
2019-05-18T09:45:29.600Z,100636.56
2019-05-18T09:48:01.162Z,100632.81
2019-05-18T09:50:32.766Z,100632.77
2019-05-18T09:53:05.038Z,100628.59
2019-05-18T09:55:37.952Z,100629.04
2019-05-18T09:58:09.477Z,100630.91
2019-05-18T10:00:41.024Z,100624.64
2019-05-18T10:03:13.246Z,100617.90
2019-05-18T10:05:46.432Z,100634.91
2019-05-18T10:08:18.974Z,100619.08
2019-05-18T10:10:50.682Z,100615.94
2019-05-18T10:13:22.198Z,100613.36
2019-05-18T10:15:53.882Z,100632.67
2019-05-18T10:18:25.495Z,100622.75
2019-05-18T10:20:57.038Z,100612.63
2019-05-18T10:23:28.695Z,100616.33
2019-05-18T10:26:00.428Z,100606.33
2019-05-18T10:28:31.971Z,100613.66
2019-05-18T10:31:03.637Z,100615.48
2019-05-18T10:33:35.042Z,100605.44
2019-05-18T10:36:11.522Z,100609.58
2019-05-18T10:38:41.800Z,100606.01
2019-05-18T10:41:13.325Z,100601.07
2019-05-18T10:43:48.624Z,100604.83
2019-05-18T10:46:24.667Z,100601.22
2019-05-18T10:48:58.620Z,100594.88
2019-05-18T10:51:30.321Z,100603.95
2019-05-18T10:54:01.817Z,100589.09
2019-05-18T10:56:38.706Z,100589.09
2019-05-18T10:59:12.774Z,100597.92
2019-05-18T11:01:47.956Z,100587.45
2019-05-18T11:04:19.638Z,100587.69
2019-05-18T11:06:51.156Z,100575.98
2019-05-18T11:09:22.665Z,100579.50
2019-05-18T11:11:54.258Z,100571.34
2019-05-18T11:14:25.972Z,100582.23
2019-05-18T11:16:58.510Z,100594.50
2019-05-18T11:19:30.087Z,100591.81
2019-05-18T11:22:03.497Z,100590.13
2019-05-18T11:24:36.285Z,100589.09
2019-05-18T11:27:07.556Z,100586.74
2019-05-18T11:29:39.430Z,100585.75
2019-05-18T11:32:12.094Z,100580.66
2019-05-18T11:34:44.004Z,100585.09
2019-05-18T11:37:16.545Z,100572.84
2019-05-18T11:39:48.023Z,100566.39
2019-05-18T11:42:19.484Z,100575.92
2019-05-18T11:44:51.041Z,100570.40
2019-05-18T11:47:22.587Z,100556.45
2019-05-18T11:49:57.816Z,100554.80
2019-05-18T11:52:29.655Z,100559.57
2019-05-18T11:55:05.039Z,100546.27
2019-05-18T11:57:35.817Z,100552.41
2019-05-18T12:00:14.123Z,100555.08
2019-05-18T12:02:45.731Z,100558.10
2019-05-18T12:05:18.873Z,100536.13
2019-05-18T12:07:50.531Z,100538.37
2019-05-18T12:10:23.269Z,100536.91
2019-05-18T12:12:56.536Z,100535.70
2019-05-18T12:15:28.425Z,100523.80
2019-05-18T12:18:00.015Z,100525.28
2019-05-18T12:20:33.695Z,100512.20
2019-05-18T12:23:08.411Z,100527.89
2019-05-18T12:25:41.042Z,100508.44
2019-05-18T12:28:12.645Z,100513.22
2019-05-18T12:30:46.456Z,100509.30
2019-05-18T12:33:17.996Z,100509.16
2019-05-18T12:35:49.443Z,100500.28
2019-05-18T12:38:22.806Z,100497.90
2019-05-18T12:40:55.506Z,100500.26
2019-05-18T12:43:27.128Z,100505.55
2019-05-18T12:46:01.272Z,100505.36
2019-05-18T12:48:32.316Z,100501.28
2019-05-18T12:51:04.546Z,100512.87
2019-05-18T12:53:39.292Z,100512.22
2019-05-18T12:56:10.754Z,100516.62
2019-05-18T12:58:42.281Z,100491.40
2019-05-18T13:01:13.836Z,100494.45
2019-05-18T13:03:46.424Z,100502.98
2019-05-18T13:06:20.269Z,100497.00
2019-05-18T13:08:52.050Z,100494.47
2019-05-18T13:11:24.670Z,100495.30
2019-05-18T13:13:56.161Z,100498.53
2019-05-18T13:16:31.305Z,100499.20
2019-05-18T13:19:02.733Z,100483.91
2019-05-18T13:21:40.186Z,100492.41
2019-05-18T13:24:13.070Z,100491.23
2019-05-18T13:27:00.288Z,100480.51
2019-05-18T13:29:33.869Z,100490.22
2019-05-18T13:32:06.499Z,100477.43
2019-05-18T13:34:38.529Z,100485.95
2019-05-18T13:37:10.180Z,100488.66
2019-05-18T13:39:41.696Z,100483.22
2019-05-18T13:42:13.235Z,100478.11
2019-05-18T13:44:44.654Z,100474.19
2019-05-18T13:47:16.213Z,100471.28
2019-05-18T13:49:49.688Z,100476.39
2019-05-18T13:52:23.207Z,100469.42
2019-05-18T13:55:03.735Z,100472.67
2019-05-18T13:57:29.404Z,100479.12
2019-05-18T14:00:01.089Z,100465.84
2019-05-18T14:02:32.663Z,100466.88
2019-05-18T14:05:05.802Z,100470.27
2019-05-18T14:07:37.814Z,100469.60
2019-05-18T14:10:12.615Z,100467.91
2019-05-18T14:12:44.361Z,100463.81
2019-05-18T14:15:16.126Z,100469.77
2019-05-18T14:17:48.737Z,100464.84
2019-05-18T14:20:20.328Z,100471.98
2019-05-18T14:22:52.099Z,100473.67
2019-05-18T14:25:23.871Z,100457.98
2019-05-18T14:27:55.430Z,100464.46
2019-05-18T14:30:27.937Z,100466.00
2019-05-18T14:32:59.317Z,100467.55
2019-05-18T14:35:33.397Z,100454.95
2019-05-18T14:38:04.417Z,100455.97
2019-05-18T14:40:36.545Z,100459.03
2019-05-18T14:43:09.137Z,100452.75
2019-05-18T14:45:41.586Z,100453.07
2019-05-18T14:48:13.020Z,100448.14
2019-05-18T14:50:45.614Z,100461.92
2019-05-18T14:53:18.157Z,100454.41
2019-05-18T14:55:49.603Z,100446.78
2019-05-18T14:58:22.321Z,100448.13
2019-05-18T15:00:53.736Z,100441.29
2019-05-18T15:03:25.174Z,100445.86
2019-05-18T15:05:56.802Z,100443.28
2019-05-18T15:08:28.255Z,100435.84
2019-05-18T15:10:59.705Z,100446.59
2019-05-18T15:13:32.424Z,100439.44
2019-05-18T15:16:03.941Z,100436.54
2019-05-18T15:18:35.938Z,100441.98
2019-05-18T15:21:07.641Z,100436.48
2019-05-18T15:23:40.141Z,100431.21
2019-05-18T15:26:12.002Z,100429.34
2019-05-18T15:28:43.472Z,100436.14
2019-05-18T15:31:15.051Z,100439.20
2019-05-18T15:33:46.594Z,100425.25
2019-05-18T15:36:18.302Z,100442.57
2019-05-18T15:38:49.806Z,100428.60
2019-05-18T15:41:21.244Z,100433.71
2019-05-18T15:43:54.293Z,100432.53
2019-05-18T15:46:25.793Z,100426.38
2019-05-18T15:48:57.383Z,100432.02
2019-05-18T15:51:28.803Z,100425.55
2019-05-18T15:54:01.802Z,100420.10
2019-05-18T15:56:33.571Z,100426.20
2019-05-18T15:59:05.230Z,100429.94
2019-05-18T16:01:36.648Z,100437.34
2019-05-18T16:04:10.259Z,100433.41
2019-05-18T16:06:41.740Z,100443.57
2019-05-18T16:09:14.323Z,100450.70
2019-05-18T16:11:45.795Z,100442.85
2019-05-18T16:14:18.446Z,100440.95
2019-05-18T16:16:54.684Z,100442.95
2019-05-18T16:19:23.177Z,100453.50
2019-05-18T16:21:54.711Z,100442.92
2019-05-18T16:24:26.159Z,100446.49
2019-05-18T16:26:57.722Z,100445.75
2019-05-18T16:29:29.261Z,100445.58
2019-05-18T16:32:00.680Z,100450.29
2019-05-18T16:34:32.083Z,100451.65
2019-05-18T16:37:04.988Z,100460.12
2019-05-18T16:39:38.506Z,100459.42
2019-05-18T16:42:10.220Z,100452.58
2019-05-18T16:44:41.769Z,100461.36
2019-05-18T16:47:13.255Z,100460.11
2019-05-18T16:49:46.766Z,100463.63
2019-05-18T16:52:19.295Z,100458.84
2019-05-18T16:54:50.759Z,100465.38
2019-05-18T16:57:22.183Z,100463.69
2019-05-18T16:59:54.771Z,100468.58
2019-05-18T17:02:31.515Z,100472.25
2019-05-18T17:04:59.652Z,100472.56
2019-05-18T17:07:32.151Z,100464.39
2019-05-18T17:10:06.375Z,100464.86
2019-05-18T17:12:38.037Z,100466.63
2019-05-18T17:15:10.157Z,100466.63
2019-05-18T17:17:41.690Z,100472.20
2019-05-18T17:20:14.520Z,100470.47
2019-05-18T17:22:47.029Z,100476.20
2019-05-18T17:25:18.559Z,100481.15
2019-05-18T17:27:50.961Z,100482.34
2019-05-18T17:30:22.590Z,100488.67
2019-05-18T17:32:54.577Z,100489.48
2019-05-18T17:35:26.072Z,100487.20
2019-05-18T17:37:57.540Z,100489.88
2019-05-18T17:40:28.992Z,100499.92
2019-05-18T17:43:00.780Z,100508.36
2019-05-18T17:45:32.756Z,100513.09
2019-05-18T17:48:04.359Z,100513.90
2019-05-18T17:50:36.972Z,100511.98
2019-05-18T17:53:08.558Z,100514.28
2019-05-18T17:55:41.237Z,100515.59
2019-05-18T17:58:12.708Z,100516.52
2019-05-18T18:00:45.389Z,100517.79
2019-05-18T18:03:17.020Z,100523.50
2019-05-18T18:05:49.520Z,100528.87
2019-05-18T18:08:21.080Z,100522.55
2019-05-18T18:10:52.496Z,100518.40
2019-05-18T18:13:25.017Z,100520.08
2019-05-18T18:15:56.555Z,100516.38
2019-05-18T18:18:29.331Z,100519.38
2019-05-18T18:21:01.533Z,100524.17
2019-05-18T18:23:33.088Z,100533.44
2019-05-18T18:26:04.612Z,100533.80
2019-05-18T18:28:37.000Z,100533.17
2019-05-18T18:31:08.448Z,100539.44
2019-05-18T18:33:40.629Z,100534.20
2019-05-18T18:36:14.186Z,100534.80
2019-05-18T18:38:45.932Z,100538.20
2019-05-18T18:41:18.780Z,100540.99
2019-05-18T18:43:50.320Z,100537.84
2019-05-18T18:46:21.878Z,100536.41
2019-05-18T18:48:53.717Z,100542.11
2019-05-18T18:51:25.590Z,100543.89
2019-05-18T18:53:57.321Z,100542.24
2019-05-18T18:56:28.905Z,100546.85
2019-05-18T18:59:00.430Z,100545.42
2019-05-18T19:01:33.039Z,100548.17
2019-05-18T19:04:04.511Z,100547.02
2019-05-18T19:06:36.236Z,100549.58
2019-05-18T19:09:08.477Z,100549.55
2019-05-18T19:11:42.061Z,100556.61
2019-05-18T19:14:13.735Z,100555.91
2019-05-18T19:16:46.231Z,100558.50
2019-05-18T19:19:18.142Z,100559.42
2019-05-18T19:21:50.841Z,100562.91
2019-05-18T19:24:23.531Z,100562.66
2019-05-18T19:26:55.483Z,100555.22
2019-05-18T19:29:27.022Z,100556.95
2019-05-18T19:31:58.610Z,100558.10
2019-05-18T19:34:30.293Z,100551.72
2019-05-18T19:37:04.995Z,100550.64
2019-05-18T19:39:36.895Z,100548.11
2019-05-18T19:42:10.243Z,100548.75
2019-05-18T19:44:43.015Z,100550.62
2019-05-18T19:47:14.623Z,100553.73
2019-05-18T19:49:46.410Z,100551.64
2019-05-18T19:52:19.245Z,100562.59
2019-05-18T19:54:52.853Z,100558.19
2019-05-18T19:57:26.305Z,100563.11
2019-05-18T19:59:57.858Z,100561.77
2019-05-18T20:02:29.309Z,100559.28
2019-05-18T20:05:07.817Z,100562.58
2019-05-18T20:07:36.077Z,100568.84
2019-05-18T20:10:10.599Z,100572.31
2019-05-18T20:12:44.479Z,100565.56
2019-05-18T20:15:17.017Z,100577.25
2019-05-18T20:17:48.575Z,100574.91
2019-05-18T20:20:20.100Z,100582.91
2019-05-18T20:22:51.722Z,100577.77
2019-05-18T20:25:23.545Z,100585.51
2019-05-18T20:27:56.007Z,100586.39
2019-05-18T20:30:28.601Z,100586.75
2019-05-18T20:33:00.259Z,100585.91
2019-05-18T20:35:34.196Z,100577.20
2019-05-18T20:38:08.220Z,100576.34
2019-05-18T20:40:40.960Z,100582.59
2019-05-18T20:43:12.702Z,100576.84
2019-05-18T20:45:47.959Z,100576.23
2019-05-18T20:48:19.604Z,100576.75
2019-05-18T20:50:51.625Z,100576.49
2019-05-18T20:53:23.131Z,100587.03
2019-05-18T20:55:56.784Z,100593.16
2019-05-18T20:58:39.605Z,100591.34
2019-05-18T21:01:01.915Z,100592.56
2019-05-18T21:03:38.411Z,100593.05
2019-05-18T21:06:11.212Z,100594.64
2019-05-18T21:08:43.693Z,100583.34
2019-05-18T21:11:15.182Z,100589.72
2019-05-18T21:13:46.696Z,100587.83
2019-05-18T21:16:19.282Z,100588.70
2019-05-18T21:18:51.395Z,100594.33
2019-05-18T21:21:25.611Z,100596.14
2019-05-18T21:23:56.690Z,100598.84
2019-05-18T21:26:30.701Z,100590.87
2019-05-18T21:29:03.788Z,100588.16
2019-05-18T21:31:36.478Z,100584.35
2019-05-18T21:34:10.381Z,100588.86
2019-05-18T21:36:42.039Z,100591.42
2019-05-18T21:39:14.657Z,100589.09
2019-05-18T21:41:46.083Z,100590.67
2019-05-18T21:44:18.762Z,100584.66
2019-05-18T21:46:50.332Z,100588.08
2019-05-18T21:49:22.057Z,100586.96
2019-05-18T21:51:55.599Z,100591.72
2019-05-18T21:54:27.012Z,100595.50
2019-05-18T21:56:59.077Z,100600.48
2019-05-18T21:59:30.708Z,100600.34
2019-05-18T22:02:03.076Z,100603.83
2019-05-18T22:04:34.646Z,100599.65
2019-05-18T22:07:06.301Z,100600.99
2019-05-18T22:09:38.687Z,100594.13
2019-05-18T22:12:11.495Z,100591.40
2019-05-18T22:14:43.022Z,100588.30
2019-05-18T22:17:14.447Z,100594.27
2019-05-18T22:19:46.779Z,100588.53
2019-05-18T22:22:18.301Z,100592.20
2019-05-18T22:24:50.823Z,100590.09
2019-05-18T22:27:23.188Z,100584.58
2019-05-18T22:29:54.668Z,100584.04
2019-05-18T22:32:26.230Z,100582.70
2019-05-18T22:34:58.686Z,100586.37
2019-05-18T22:37:30.500Z,100579.64
2019-05-18T22:40:02.043Z,100580.50
2019-05-18T22:42:34.708Z,100580.09
2019-05-18T22:45:10.469Z,100586.31
2019-05-18T22:47:45.685Z,100586.30
2019-05-18T22:50:17.324Z,100592.05
2019-05-18T22:52:49.904Z,100597.06
2019-05-18T22:55:23.827Z,100588.72
2019-05-18T22:57:57.790Z,100591.84
2019-05-18T23:00:29.481Z,100589.38
2019-05-18T23:03:02.087Z,100592.92
2019-05-18T23:05:33.636Z,100593.39
2019-05-18T23:08:09.026Z,100586.34
2019-05-18T23:10:41.430Z,100587.47
2019-05-18T23:13:13.945Z,100586.52
2019-05-18T23:15:47.588Z,100592.59
2019-05-18T23:18:19.124Z,100588.78
2019-05-18T23:20:50.675Z,100579.95
2019-05-18T23:23:23.352Z,100593.88
2019-05-18T23:25:55.930Z,100595.06
2019-05-18T23:28:28.170Z,100603.89
2019-05-18T23:31:03.361Z,100602.76
2019-05-18T23:33:37.948Z,100602.54
2019-05-18T23:36:09.781Z,100608.40
2019-05-18T23:38:41.199Z,100616.59
2019-05-18T23:41:13.248Z,100616.52
2019-05-18T23:43:44.720Z,100618.84
2019-05-18T23:46:16.813Z,100612.95
2019-05-18T23:48:48.340Z,100612.96
2019-05-18T23:51:20.785Z,100604.38
2019-05-18T23:53:53.863Z,100604.59
2019-05-18T23:56:25.497Z,100611.30
2019-05-18T23:58:57.992Z,100613.21
